KENV/ENV METAR and TAF weather

Enter ICAO airport designator
Station Type Date Time Source
KENV METAR 2020/08/12 17:56 UTC NOAA

KENV 121756Z AUTO 11006KT 10SM CLR 31/04 A3004 RMK AO2 SLP122 T03110039 10311 20194 51003


Station Type Date Time Source
KENV Decoded METAR 2020/08/12 17:56 UTC NOAA

Wendover / Air Force Auxillary Field, UT, United States (KENV) 40-44N 114-02W 1292M
Aug 12, 2020 - 01:56 PM EDT / 2020.08.12 1756 UTC
Wind: from the ESE (110 degrees) at 7 MPH (6 KT):0
Visibility: 10 mile(s):0
Sky conditions: clear
Temperature: 88.0 F (31.1 C)
Dew Point: 39.0 F (3.9 C)
Relative Humidity: 17%
Pressure (altimeter): 30.04 in. Hg (1017 hPa)
Pressure tendency: 0.01 inches (0.3 hPa) higher than three hours ago
ob: KENV 121756Z AUTO 11006KT 10SM CLR 31/04 A3004 RMK AO2 SLP122 T03110039 10311 20194 51003
cycle: 18

Station Type Date Time Source
KENV TAF 2020/08/12 18:42 UTC NOAA

TAF KENV 121739Z 1218/1318 13008KT P6SM FEW150
FM122000 24009G18KT P6SM VCSH FEW080 SCT130
FM130300 31008KT P6SM SKC

Example: see airport list